Aérodrome :
LOGIN :

S'inscrire | Disclaimer

   EN    FR    IT 

 










Légende :    VFR   VFR Marginal   IFR   IFR Intensif   IFR Très Intensif
Visi : 
Plafond : 
>= 8 km
>= 3000ft
5 à 8 km
1000 à 3000 ft
1500m à 5 km
500 à 1000 ft
800 à 1500m
200 à 500 ft
< 800m
< 200 ft
Symboles :   Orages  Brouillard  Fortes neiges  Fortes précipitations  Vent > 20 kt
SIGMETs :   Divers  Orages  Givrage  Turbulence  Onde Orograph.  Cendres Volcan.






- Altitude de l'aérodrome : 62 ft
- Code IATA : TAN


GMTT - Tanger Ibn Batouta

DERNIER METAR :
  • 051630Z 07015KT 9999 SCT026 16/10 Q1012 NOSIG

METARs EXPIRÉS :
  • 051600Z 06015KT 9999 SCT025 SCT070 16/11 Q1012 NOSIG
  • 051530Z 07015KT 9999 SCT033 17/11 Q1012 NOSIG
  • 051500Z 06015KT 9999 SCT026 BKN033 17/11 Q1011 NOSIG
  • 051430Z 07012KT 9999 SCT026 18/11 Q1011 NOSIG
  • 051400Z 06013KT 9999 FEW023 SCT040 17/11 Q1011 NOSIG

TAF TAF GMTT
Valide du 05 à 12h jusqu'au 06 à 18h UTC


051100Z 0512/0618 10005KT 9999 FEW040 SCT260
BECMG 0514/0516 10016KT CAVOK



MET'MAP, la Météo Aéronautique d'un coup d'oeil ! - Copyright ORBIFLY Décembre 2007 - Disclaimer

ORBIFLY MET'MAP TEAM :

Programmation & Développement : Alexandra Zaïnal
Sur une idée originale de : Baudouin d'Aumeries
Assistance à la programmation : Marc-Olivier Méhu
Soutien technique & logistique : Manuel Goepfert

Contact : metmap@orbifly.com




SOURCES & CREDITS :

   NOAA